Flight Track Log - Related Links

Times and Time Zones

All times are in EDT time to prevent confusion due to time zone crossing. See the AMF1965 flight status page for this flight to view local times or setup timezone preferences in your user account.

Time Position Orientation Groundspeed Altitude Reporting Facility
EDT Latitude Longitude Course Direction KTS MPH feet Rate Location/Type
Fri 08:16:13 PM 45.9178 -119.6758 260° West 225 259 10,000  Level Seattle Center
Fri 08:17:14 PM 45.9069 -119.7644 260° West 226 260 11,100 1,131 Climbing Seattle Center
Fri 08:18:15 PM 45.8947 -119.8689 260° West 222 255 12,300 1,131 Climbing Seattle Center
Fri 08:19:16 PM 45.8886 -119.9536 264° West 215 247 13,400 984 Climbing Seattle Center
Fri 08:20:17 PM 45.8811 -120.0375 263° West 215 247 14,300 541 Climbing Seattle Center
Fri 08:21:18 PM 45.8694 -120.1256 259° West 224 258 14,500 98 Climbing Seattle Center
Fri 08:22:19 PM 45.8606 -120.2175 262° West 233 268 14,500  Level Seattle Center
Fri 08:23:20 PM 45.8489 -120.3114 260° West 241 277 14,500  Level Seattle Center
Fri 08:24:21 PM 45.8392 -120.4033 261° West 235 270 14,500  Level Seattle Center
Fri 08:25:22 PM 45.8281 -120.4964 260° West 237 273 14,500  Level Seattle Center
Fri 08:26:23 PM 45.8161 -120.5861 259° West 232 267 14,500  Level Seattle Center
Fri 08:27:24 PM 45.8056 -120.6778 261° West 234 269 14,500  Level Seattle Center
Fri 08:28:25 PM 45.7942 -120.7689 260° West 234 269 14,500  Level Seattle Center
Fri 08:29:26 PM 45.7836 -120.8819 262° West 239 275 14,500  Level Seattle Center
Fri 08:30:26 PM 45.7761 -120.9739 263° West 236 272 14,500  Level Seattle Center
Fri 08:31:27 PM 45.7661 -121.0667 261° West 237 273 14,500  Level Seattle Center
Fri 08:32:28 PM 45.7592 -121.1603 264° West 237 273 14,500 -49 Level Seattle Center
Fri 08:33:29 PM 45.7519 -121.2522 264° West 236 272 14,400 -590 Descending Seattle Center
Fri 08:34:30 PM 45.7336 -121.3511 255° West 256 295 13,300 -1,230 Descending Seattle Center
Fri 08:35:31 PM 45.7133 -121.4561 255° West 273 314 11,900 -1,355 Descending Seattle Center
Fri 08:36:03 PM 45.7000 -121.5225 254° West 279 321 11,200 -1,419 Descending Seattle Center
Fri 08:37:04 PM 45.6764 -121.6381 254° West 285 328 9,700 -1,240 Descending Seattle Center
Fri 08:38:04 PM 45.6531 -121.7442 253° West 280 322 8,700 -933 Descending Seattle Center
Fri 08:38:34 PM 45.6450 -121.7769 251° West 281 323 8,300 -1,377 Descending Seattle Center
Fri 08:39:05 PM 45.6311 -121.8467 254° West 269 310 7,300 -1,279 Descending Seattle Center
Fri 08:39:35 PM 45.6217 -121.8786 247° West 273 314 7,000 -627 Descending Seattle Center
Fri 08:40:12 PM 45.6014 -121.9550 249° West 273 314 6,600 -717 Descending Seattle Center
Fri 08:41:07 PM 45.5753 -122.0494 248° West 267 307 5,900 -706 Descending Seattle Center
Fri 08:41:37 PM 45.5669 -122.0883 253° West 272 313 5,600 -787 Descending Seattle Center
Fri 08:42:08 PM 45.5497 -122.1561 250° West 270 311 5,100 -787 Descending Seattle Center
Fri 08:42:38 PM 45.5467 -122.1894 263° West 267 307 4,800 -787 Descending Seattle Center
Fri 08:43:09 PM 45.5331 -122.2556 254° West 264 304 4,300 -984 Descending Seattle Center
Fri 08:43:39 PM 45.5317 -122.2911 267° West 263 303 3,800 -1,233 Descending Seattle Center
Fri 08:44:22 PM 45.5175 -122.3700 256° West 252 290 2,800 -1,174 Descending Seattle Center
Fri 08:45:11 PM 45.5261 -122.4436 280° West 213 245 2,000 -608 Descending Seattle Center
Fri 08:45:41 PM 45.5356 -122.4636 304° West 221 254 2,000 -545 Level Seattle Center
Fri 08:46:17 PM 45.5489 -122.5022 296° West 120 138 1,400 -791 Descending Seattle Center
Fri 08:47:12 PM 45.5628 -122.5397 298° West 128 147 800 -494 Descending Seattle Center
Fri 08:47:42 PM 45.5731 -122.5606 305° West 152 175 700 -200 Descending Seattle Center
Fri 08:49:00 PM 45.5833 -122.5833 270° West  Level FlightAware Approximate
Fri 08:56:00 PM 45.5887 -122.5969 270° West  Level Estimated
Fri 08:57:00 PM 45.5887 -122.5969 270° West  Level Estimated
Fri 08:58:00 PM 45.5887 -122.5969 270° West  Level Estimated
Fri 08:59:00 PM 45.5887 -122.5969 270° West  Level Estimated
Fri 09:00:00 PM 45.5887 -122.5969 270° West  Level Estimated
Fri 09:01:00 PM 45.5887 -122.5969 270° West  Level Estimated
Fri 09:02:00 PM 45.5887 -122.5969 270° West  Level Estimated
Fri 09:03:00 PM 45.5887 -122.5969 270° West  Level Estimated
Fri 09:04:00 PM 45.5887 -122.5969 270° West  Level Estimated

Login

Don't have an account? Register now (free) for customized features, flight alerts, and more!